Time;durP1;ratioP1;P1;durP2;ratioP2;P2;SDS_P1;SDS_P2;PMS_P1;PMS_P2;Temp;Humidity;BMP_temperature;BMP_pressure;BME280_temperature;BME280_humidity;BME280_pressure;Samples;Min_cycle;Max_cycle;Signal;HPM_P1;HPM_P2
2022/03/25 00:00:00;;;;;;;34.60;21.77;;;9.10;1.00;;;;;;5115079;28;20452;-69
2022/03/25 00:02:27;;;;;;;35.07;20.87;;;9.10;1.00;;;;;;5115503;28;20472;-68
2022/03/25 00:04:54;;;;;;;29.30;20.70;;;9.10;1.00;;;;;;5115224;28;20543;-69
2022/03/25 00:07:23;;;;;;;38.27;22.43;;;9.00;1.00;;;;;;5114956;28;20881;-70
2022/03/25 00:09:51;;;;;;;35.73;21.50;;;9.00;1.00;;;;;;5115145;28;20467;-69
2022/03/25 00:12:18;;;;;;;34.73;20.57;;;9.00;1.00;;;;;;5115397;28;20456;-70
2022/03/25 00:14:45;;;;;;;37.20;21.53;;;9.00;1.00;;;;;;5115176;28;20775;-69
2022/03/25 00:17:12;;;;;;;29.13;21.37;;;9.00;1.00;;;;;;5115162;28;20460;-70
2022/03/25 00:19:38;;;;;;;36.60;21.77;;;8.90;1.00;;;;;;5115139;28;20553;-68
2022/03/25 00:22:05;;;;;;;30.27;20.13;;;8.90;1.00;;;;;;5114966;28;20453;-69
2022/03/25 00:24:32;;;;;;;29.40;20.83;;;8.90;1.00;;;;;;5115543;28;20802;-69
2022/03/25 00:27:00;;;;;;;32.23;20.70;;;8.90;1.00;;;;;;5115026;28;20471;-69
2022/03/25 00:29:26;;;;;;;28.53;19.40;;;8.90;1.00;;;;;;5114805;28;20460;-69
2022/03/25 00:31:53;;;;;;;33.97;20.73;;;8.90;1.00;;;;;;5114942;28;20465;-69
2022/03/25 00:34:20;;;;;;;29.93;19.70;;;8.90;1.00;;;;;;5115063;28;20455;-69
2022/03/25 00:36:47;;;;;;;31.60;21.27;;;8.80;1.00;;;;;;5114952;28;20452;-69
2022/03/25 00:39:14;;;;;;;32.03;20.93;;;8.80;1.00;;;;;;5114721;28;20934;-69
2022/03/25 00:41:41;;;;;;;30.90;19.23;;;8.80;1.00;;;;;;5115302;28;20542;-70
2022/03/25 00:44:09;;;;;;;27.93;20.17;;;8.90;1.00;;;;;;5119197;28;20505;-69
2022/03/25 00:46:36;;;;;;;32.00;20.33;;;8.90;1.00;;;;;;5119082;28;20463;-69
2022/03/25 00:49:04;;;;;;;31.20;20.43;;;8.80;1.00;;;;;;5119276;28;20460;-69
2022/03/25 00:51:31;;;;;;;30.37;20.73;;;8.70;1.00;;;;;;5120665;28;20524;-69
2022/03/25 00:53:58;;;;;;;31.87;20.20;;;8.80;1.00;;;;;;5118356;28;20472;-69
2022/03/25 00:56:25;;;;;;;33.30;20.40;;;8.70;1.00;;;;;;5118812;28;20471;-69
2022/03/25 00:58:52;;;;;;;34.33;20.17;;;8.70;1.00;;;;;;5118747;28;20980;-69
2022/03/25 01:01:20;;;;;;;31.30;19.73;;;8.70;1.00;;;;;;5118596;28;20922;-69
2022/03/25 01:03:46;;;;;;;33.97;20.33;;;8.70;1.00;;;;;;5118760;28;20460;-69
2022/03/25 01:06:13;;;;;;;28.10;19.73;;;8.70;1.00;;;;;;5118839;28;20451;-69
2022/03/25 01:08:40;;;;;;;28.37;19.47;;;8.60;1.00;;;;;;5118797;28;20460;-69
2022/03/25 01:11:07;;;;;;;30.63;21.70;;;8.60;1.00;;;;;;5118782;28;20585;-70
2022/03/25 01:13:34;;;;;;;33.20;21.20;;;8.50;1.00;;;;;;5118706;28;20456;-71
2022/03/25 01:16:04;;;;;;;35.03;20.63;;;8.50;1.00;;;;;;5119031;28;20452;-69
2022/03/25 01:18:32;;;;;;;34.60;21.77;;;8.50;1.00;;;;;;5118372;28;20487;-67
2022/03/25 01:20:58;;;;;;;30.90;20.57;;;8.50;1.00;;;;;;5118839;28;20467;-69
2022/03/25 01:23:26;;;;;;;32.80;21.37;;;8.50;1.00;;;;;;5118352;28;20785;-69
2022/03/25 01:25:53;;;;;;;35.20;21.37;;;8.40;1.00;;;;;;5118541;28;20456;-69
2022/03/25 01:28:20;;;;;;;30.30;20.33;;;8.40;1.00;;;;;;5118941;28;20797;-69
2022/03/25 01:30:47;;;;;;;33.70;21.67;;;8.40;1.00;;;;;;5118283;28;20466;-69
2022/03/25 01:33:14;;;;;;;31.30;21.97;;;8.30;1.00;;;;;;5118012;28;20531;-68
2022/03/25 01:35:43;;;;;;;33.63;20.63;;;8.30;1.00;;;;;;5118753;28;20456;-69
2022/03/25 01:38:09;;;;;;;26.03;19.67;;;8.30;1.00;;;;;;5118813;28;20558;-70
2022/03/25 01:40:37;;;;;;;35.53;20.90;;;8.20;1.00;;;;;;5119366;28;20452;-68
2022/03/25 01:43:06;;;;;;;28.90;19.80;;;8.20;1.00;;;;;;5119572;28;20489;-69
2022/03/25 01:45:35;;;;;;;30.67;21.23;;;8.30;1.00;;;;;;5118873;28;20460;-69
2022/03/25 01:48:03;;;;;;;29.67;20.60;;;8.30;1.00;;;;;;5118247;28;20516;-69
2022/03/25 01:50:30;;;;;;;29.40;21.40;;;8.30;1.00;;;;;;5118101;28;20452;-68
2022/03/25 01:52:58;;;;;;;36.03;21.53;;;8.30;1.00;;;;;;5117762;28;20480;-69
2022/03/25 01:55:26;;;;;;;36.00;20.83;;;8.20;1.00;;;;;;5119142;28;20452;-70
2022/03/25 01:57:57;;;;;;;30.57;21.27;;;8.20;1.00;;;;;;5120757;28;20456;-70
2022/03/25 02:00:24;;;;;;;34.67;22.80;;;8.20;1.00;;;;;;5122046;28;20443;-70
2022/03/25 02:02:51;;;;;;;34.87;21.67;;;8.10;1.00;;;;;;5123133;28;20474;-69
2022/03/25 02:05:18;;;;;;;32.63;22.10;;;8.10;1.00;;;;;;5123329;28;20459;-70
2022/03/25 02:07:46;;;;;;;31.50;21.83;;;8.10;1.00;;;;;;5118085;28;20457;-69
2022/03/25 02:10:14;;;;;;;31.37;20.90;;;8.10;1.00;;;;;;5117791;28;20456;-70
2022/03/25 02:12:41;;;;;;;40.73;22.13;;;8.10;1.00;;;;;;5117276;28;20457;-70
2022/03/25 02:15:09;;;;;;;33.67;20.10;;;8.20;1.00;;;;;;5117874;28;20460;-69
2022/03/25 02:17:36;;;;;;;33.07;21.77;;;8.20;1.00;;;;;;5117628;28;20456;-69
2022/03/25 02:20:08;;;;;;;32.90;20.90;;;8.10;1.00;;;;;;5118400;28;20495;-71
2022/03/25 02:22:36;;;;;;;65.57;37.80;;;8.10;1.00;;;;;;5120055;28;20460;-69
2022/03/25 02:25:08;;;;;;;38.93;25.40;;;8.10;1.00;;;;;;5117739;28;20461;-70
2022/03/25 02:27:36;;;;;;;31.93;21.37;;;8.10;1.00;;;;;;5117790;28;20602;-69
2022/03/25 02:30:03;;;;;;;35.20;22.60;;;8.10;1.00;;;;;;5117403;28;20529;-68
2022/03/25 02:32:30;;;;;;;33.37;22.77;;;8.10;1.00;;;;;;5117222;28;20461;-69
2022/03/25 02:34:56;;;;;;;37.50;22.73;;;8.10;1.00;;;;;;5117004;28;20457;-69
2022/03/25 02:37:25;;;;;;;41.90;22.63;;;8.00;1.00;;;;;;5116883;28;20460;-69
2022/03/25 02:39:53;;;;;;;33.97;22.57;;;8.00;1.00;;;;;;5117181;28;20783;-69
2022/03/25 02:42:20;;;;;;;49.13;22.20;;;8.00;1.00;;;;;;5117053;28;20551;-69
2022/03/25 02:44:47;;;;;;;49.30;22.53;;;8.00;1.00;;;;;;5117218;28;20449;-69
2022/03/25 02:47:14;;;;;;;33.17;22.13;;;7.90;1.00;;;;;;5117087;28;20524;-69
2022/03/25 02:49:40;;;;;;;36.37;21.13;;;7.90;1.00;;;;;;5117342;28;20444;-69
2022/03/25 02:52:08;;;;;;;34.93;22.80;;;7.90;1.00;;;;;;5116308;28;20962;-71
2022/03/25 02:54:34;;;;;;;29.23;21.70;;;7.90;1.00;;;;;;5117575;28;20763;-72
2022/03/25 02:57:03;;;;;;;31.37;20.63;;;7.80;1.00;;;;;;5116910;28;20456;-72
2022/03/25 02:59:29;;;;;;;33.87;21.23;;;7.90;1.00;;;;;;5116418;28;20476;-72
2022/03/25 03:01:56;;;;;;;33.10;20.90;;;7.80;1.00;;;;;;5116829;28;20463;-72
2022/03/25 03:04:23;;;;;;;27.80;19.70;;;7.80;1.00;;;;;;5116102;28;20471;-71
2022/03/25 03:06:50;;;;;;;32.83;21.67;;;7.80;1.00;;;;;;5116928;28;20551;-73
2022/03/25 03:09:16;;;;;;;32.40;22.10;;;7.80;1.00;;;;;;5116543;28;20884;-73
2022/03/25 03:11:43;;;;;;;36.03;21.60;;;7.80;1.00;;;;;;5116153;28;20466;-72
2022/03/25 03:14:12;;;;;;;32.03;21.63;;;7.80;1.00;;;;;;5116447;28;20484;-72
2022/03/25 03:16:39;;;;;;;31.93;22.00;;;7.80;1.00;;;;;;5116251;28;20457;-71
2022/03/25 03:19:06;;;;;;;34.83;21.80;;;7.80;1.00;;;;;;5116365;28;20472;-71
2022/03/25 03:21:36;;;;;;;35.47;22.07;;;7.70;1.00;;;;;;5116012;28;20849;-72
2022/03/25 03:24:03;;;;;;;37.57;22.80;;;7.80;1.00;;;;;;5116150;28;20457;-71
2022/03/25 03:26:29;;;;;;;38.83;23.00;;;7.80;1.00;;;;;;5115748;28;20576;-71
2022/03/25 03:28:56;;;;;;;32.83;21.27;;;7.80;1.00;;;;;;5116119;28;20452;-76
2022/03/25 03:31:24;;;;;;;35.57;21.93;;;7.80;1.00;;;;;;5116497;28;20457;-72
2022/03/25 03:33:51;;;;;;;36.77;21.10;;;7.80;1.00;;;;;;5115955;28;20457;-71
2022/03/25 03:36:18;;;;;;;42.63;22.70;;;7.70;1.00;;;;;;5115871;28;20721;-72
2022/03/25 03:38:44;;;;;;;36.30;23.07;;;7.80;1.00;;;;;;5115938;28;20480;-72
2022/03/25 03:41:11;;;;;;;32.97;20.73;;;7.80;1.00;;;;;;5115684;28;20460;-71
2022/03/25 03:43:40;;;;;;;39.97;21.17;;;7.80;1.00;;;;;;5115591;28;20455;-72
2022/03/25 03:46:06;;;;;;;35.23;22.30;;;7.70;1.00;;;;;;5115476;28;20492;-71
2022/03/25 03:48:34;;;;;;;32.77;22.00;;;7.70;1.00;;;;;;5115747;28;20460;-71
2022/03/25 03:51:01;;;;;;;32.63;21.70;;;7.70;1.00;;;;;;5116111;28;20766;-71
2022/03/25 03:53:28;;;;;;;30.77;20.77;;;7.70;1.00;;;;;;5115213;28;20480;-72
2022/03/25 03:55:54;;;;;;;33.07;20.60;;;7.70;1.00;;;;;;5115370;28;20452;-71
2022/03/25 03:58:22;;;;;;;34.87;23.60;;;7.60;1.00;;;;;;5116018;28;20456;-72
2022/03/25 04:00:50;;;;;;;33.17;20.50;;;7.60;1.00;;;;;;5115719;28;20480;-72
2022/03/25 04:03:17;;;;;;;38.20;22.50;;;7.60;1.00;;;;;;5115275;28;20938;-72
2022/03/25 04:05:45;;;;;;;36.23;21.87;;;7.50;1.00;;;;;;5115229;28;21001;-72
2022/03/25 04:08:12;;;;;;;38.00;22.57;;;7.50;1.00;;;;;;5115279;28;20486;-71
2022/03/25 04:10:39;;;;;;;34.47;19.20;;;7.50;1.00;;;;;;5115379;28;20459;-71
2022/03/25 04:13:07;;;;;;;29.17;19.60;;;7.50;1.00;;;;;;5115211;28;20929;-72
2022/03/25 04:15:34;;;;;;;36.03;20.80;;;7.50;1.00;;;;;;5115055;28;20559;-72
2022/03/25 04:18:01;;;;;;;33.87;19.50;;;7.50;1.00;;;;;;5115066;28;20918;-72
2022/03/25 04:20:30;;;;;;;28.73;21.00;;;7.50;1.00;;;;;;5115488;28;20473;-72
2022/03/25 04:22:58;;;;;;;29.17;19.20;;;7.40;1.00;;;;;;5115370;28;20483;-72
2022/03/25 04:25:25;;;;;;;31.30;19.97;;;7.40;1.00;;;;;;5115208;28;20791;-71
2022/03/25 04:27:53;;;;;;;29.00;20.23;;;7.40;1.00;;;;;;5115354;28;20460;-72
2022/03/25 04:30:22;;;;;;;31.60;19.17;;;7.40;1.00;;;;;;5115748;28;20448;-71
2022/03/25 04:32:49;;;;;;;29.37;20.07;;;7.40;1.00;;;;;;5115025;28;20452;-71
2022/03/25 04:35:15;;;;;;;31.30;19.63;;;7.30;1.00;;;;;;5114976;28;20468;-71
2022/03/25 04:37:42;;;;;;;32.30;21.50;;;7.30;1.00;;;;;;5114787;28;20452;-71
2022/03/25 04:40:13;;;;;;;27.63;18.77;;;7.30;1.00;;;;;;5114830;28;20487;-72
2022/03/25 04:42:39;;;;;;;32.87;19.00;;;7.30;1.00;;;;;;5115095;28;20767;-72
2022/03/25 04:45:07;;;;;;;34.63;19.80;;;7.20;1.00;;;;;;5115039;28;20460;-71
2022/03/25 04:47:34;;;;;;;29.97;19.90;;;7.20;1.00;;;;;;5114977;28;20792;-71
2022/03/25 04:50:01;;;;;;;28.27;19.03;;;7.10;1.00;;;;;;5114575;28;20909;-71
2022/03/25 04:52:28;;;;;;;32.20;18.63;;;7.10;1.00;;;;;;5114691;28;20795;-71
2022/03/25 04:54:54;;;;;;;34.83;19.80;;;7.10;1.00;;;;;;5115195;28;20487;-71
2022/03/25 04:57:22;;;;;;;32.70;19.10;;;7.10;1.00;;;;;;5115368;28;20499;-72
2022/03/25 04:59:49;;;;;;;34.30;19.50;;;7.10;1.00;;;;;;5117830;28;20476;-71
2022/03/25 05:02:16;;;;;;;31.13;20.27;;;7.10;1.00;;;;;;5117539;28;20460;-71
2022/03/25 05:04:43;;;;;;;28.13;18.47;;;7.10;1.00;;;;;;5114908;28;20467;-72
2022/03/25 05:07:14;;;;;;;34.33;19.50;;;7.10;1.00;;;;;;5114491;28;20456;-72
2022/03/25 05:09:41;;;;;;;34.53;19.90;;;7.10;1.00;;;;;;5114956;28;20441;-72
2022/03/25 05:12:09;;;;;;;34.80;20.83;;;7.10;1.00;;;;;;5114774;28;20871;-72
2022/03/25 05:14:37;;;;;;;33.00;19.97;;;7.10;1.00;;;;;;5114591;28;20830;-72
2022/03/25 05:17:07;;;;;;;33.00;20.07;;;7.10;1.00;;;;;;5114641;28;20525;-72
2022/03/25 05:19:34;;;;;;;31.13;20.20;;;7.10;1.00;;;;;;5114494;28;20492;-72
2022/03/25 05:22:01;;;;;;;38.17;20.90;;;7.10;1.00;;;;;;5114391;28;20452;-76
2022/03/25 05:24:28;;;;;;;32.43;20.00;;;7.10;1.00;;;;;;5114505;28;20528;-72
2022/03/25 05:26:56;;;;;;;36.10;21.53;;;7.10;1.00;;;;;;5114697;28;20459;-72
2022/03/25 05:29:23;;;;;;;37.43;20.73;;;7.00;1.00;;;;;;5118154;28;20503;-72
2022/03/25 05:31:51;;;;;;;38.80;22.50;;;7.00;1.00;;;;;;5118209;28;20461;-72
2022/03/25 05:34:18;;;;;;;36.17;21.87;;;7.00;1.00;;;;;;5118448;28;20456;-72
2022/03/25 05:36:45;;;;;;;40.43;23.87;;;7.10;1.00;;;;;;5118336;28;20452;-72
2022/03/25 05:39:12;;;;;;;31.57;21.80;;;7.10;1.00;;;;;;5117889;28;20925;-72
2022/03/25 05:41:38;;;;;;;35.03;21.43;;;7.10;1.00;;;;;;5118216;28;20896;-72
2022/03/25 05:44:05;;;;;;;37.07;21.93;;;7.10;1.00;;;;;;5118220;28;20475;-72
2022/03/25 05:46:32;;;;;;;35.77;22.87;;;7.10;1.00;;;;;;5118301;28;20448;-72
2022/03/25 05:49:00;;;;;;;37.43;23.37;;;7.20;1.00;;;;;;5119080;28;20751;-72
2022/03/25 05:51:27;;;;;;;39.83;22.37;;;7.20;1.00;;;;;;5118141;28;20463;-72
2022/03/25 05:53:54;;;;;;;42.60;23.33;;;7.20;1.00;;;;;;5118313;28;20491;-72
2022/03/25 05:56:21;;;;;;;31.43;20.20;;;7.20;1.00;;;;;;5118884;28;20449;-72
2022/03/25 05:58:48;;;;;;;34.47;21.13;;;7.20;1.00;;;;;;5119764;28;20476;-72
2022/03/25 06:01:14;;;;;;;36.47;22.47;;;7.20;1.00;;;;;;5118458;28;20566;-72
2022/03/25 06:03:41;;;;;;;33.17;20.80;;;7.30;1.00;;;;;;5118473;28;20457;-73
2022/03/25 06:06:09;;;;;;;36.83;22.10;;;7.30;1.00;;;;;;5117516;28;20452;-73
2022/03/25 06:08:36;;;;;;;41.47;22.10;;;7.40;1.00;;;;;;5117814;28;20906;-72
2022/03/25 06:11:03;;;;;;;37.53;21.13;;;7.40;1.00;;;;;;5117869;28;20581;-71
2022/03/25 06:13:30;;;;;;;33.70;21.57;;;7.40;1.00;;;;;;5117622;28;20467;-71
2022/03/25 06:15:57;;;;;;;34.33;20.60;;;7.40;1.00;;;;;;5117482;28;20463;-72
2022/03/25 06:18:24;;;;;;;36.60;21.30;;;7.40;1.00;;;;;;5118005;28;20463;-72
2022/03/25 06:20:50;;;;;;;42.33;23.90;;;7.50;1.00;;;;;;5117739;28;20533;-72
2022/03/25 06:23:18;;;;;;;38.87;22.20;;;7.50;1.00;;;;;;5117789;28;20475;-72
2022/03/25 06:25:45;;;;;;;33.67;21.30;;;7.50;1.00;;;;;;5117647;28;20457;-72
2022/03/25 06:28:15;;;;;;;35.93;20.83;;;7.50;1.00;;;;;;5117365;28;20931;-72
2022/03/25 06:30:43;;;;;;;31.90;20.90;;;7.60;1.00;;;;;;5117420;28;20518;-72
2022/03/25 06:33:11;;;;;;;42.47;23.10;;;7.70;1.00;;;;;;5117267;28;20488;-71
2022/03/25 06:35:39;;;;;;;39.23;22.80;;;7.70;1.00;;;;;;5116684;28;20466;-72
2022/03/25 06:38:06;;;;;;;34.23;20.67;;;7.80;1.00;;;;;;5117417;28;20456;-72
2022/03/25 06:40:34;;;;;;;34.20;22.67;;;7.90;1.00;;;;;;5116425;28;20811;-72
2022/03/25 06:43:01;;;;;;;37.30;22.50;;;7.90;1.00;;;;;;5116781;28;20467;-72
2022/03/25 06:45:28;;;;;;;32.43;21.20;;;8.00;1.00;;;;;;5116629;28;20555;-69
2022/03/25 06:47:55;;;;;;;36.50;23.10;;;8.10;1.00;;;;;;5116764;28;20463;-69
2022/03/25 06:50:24;;;;;;;50.93;22.03;;;8.30;1.00;;;;;;5116697;28;20448;-69
2022/03/25 06:52:52;;;;;;;39.67;22.20;;;8.30;1.00;;;;;;5116313;28;20962;-69
2022/03/25 06:55:20;;;;;;;38.20;23.10;;;8.30;1.00;;;;;;5116617;28;20856;-69
2022/03/25 06:57:49;;;;;;;35.03;22.03;;;8.30;1.00;;;;;;5116747;28;20452;-69
2022/03/25 07:00:17;;;;;;;32.47;22.00;;;8.40;1.00;;;;;;5116255;28;20480;-70
2022/03/25 07:02:44;;;;;;;38.83;22.63;;;8.50;1.00;;;;;;5116412;28;20457;-70
2022/03/25 07:05:13;;;;;;;34.53;20.53;;;8.50;1.00;;;;;;5116020;28;20931;-69
2022/03/25 07:07:41;;;;;;;41.23;22.77;;;8.60;1.00;;;;;;5116761;28;20456;-69
2022/03/25 07:10:10;;;;;;;36.03;21.30;;;8.70;1.00;;;;;;5116067;28;20925;-69
2022/03/25 07:12:38;;;;;;;41.07;22.23;;;8.70;1.00;;;;;;5116692;28;20488;-69
2022/03/25 07:15:07;;;;;;;38.03;22.30;;;8.80;1.00;;;;;;5116540;28;20805;-69
2022/03/25 07:17:35;;;;;;;47.07;23.40;;;8.80;1.00;;;;;;5116881;28;20825;-69
2022/03/25 07:20:01;;;;;;;37.63;23.47;;;8.90;1.00;;;;;;5116022;28;20533;-69
2022/03/25 07:22:28;;;;;;;44.80;24.17;;;9.00;1.00;;;;;;5116500;28;20839;-69
2022/03/25 07:24:55;;;;;;;43.50;24.53;;;9.10;1.00;;;;;;5116011;28;20456;-69
2022/03/25 07:27:22;;;;;;;40.13;23.40;;;9.20;1.00;;;;;;5115775;28;20480;-69
2022/03/25 07:29:48;;;;;;;40.90;22.20;;;9.30;1.00;;;;;;5115821;28;20480;-71
2022/03/25 07:32:17;;;;;;;38.97;23.27;;;9.30;1.00;;;;;;5116052;28;20471;-69
2022/03/25 07:34:44;;;;;;;39.60;22.80;;;9.40;1.00;;;;;;5115907;28;20485;-69
2022/03/25 07:37:11;;;;;;;38.13;22.50;;;9.50;1.00;;;;;;5115105;28;20452;-69
2022/03/25 07:39:37;;;;;;;40.20;23.43;;;9.60;1.00;;;;;;5115457;28;20452;-70
2022/03/25 07:42:05;;;;;;;39.60;23.03;;;9.70;1.00;;;;;;5115706;28;20460;-69
2022/03/25 07:44:33;;;;;;;35.83;20.83;;;9.80;1.00;;;;;;5115431;28;20468;-69
2022/03/25 07:47:00;;;;;;;43.37;21.37;;;9.90;1.00;;;;;;5115368;28;20460;-72
2022/03/25 07:49:28;;;;;;;38.20;22.03;;;10.00;1.00;;;;;;5115992;28;20468;-72
2022/03/25 07:51:54;;;;;;;39.23;22.17;;;10.10;1.00;;;;;;5115229;28;20489;-69
2022/03/25 07:54:21;;;;;;;50.20;23.00;;;10.20;1.00;;;;;;5115025;28;20883;-69
2022/03/25 07:56:48;;;;;;;43.90;22.73;;;10.20;1.00;;;;;;5115469;28;20456;-70
2022/03/25 07:59:15;;;;;;;41.00;22.83;;;10.30;1.00;;;;;;5115440;28;20464;-71
2022/03/25 08:01:42;;;;;;;43.97;22.73;;;10.50;1.00;;;;;;5114571;28;20480;-71
2022/03/25 08:04:09;;;;;;;38.93;22.00;;;10.60;1.00;;;;;;5115279;28;20465;-70
2022/03/25 08:06:37;;;;;;;41.50;23.37;;;10.70;1.00;;;;;;5115486;28;20785;-71
2022/03/25 08:09:04;;;;;;;43.50;21.40;;;10.90;1.00;;;;;;5115240;28;20457;-71
2022/03/25 08:11:30;;;;;;;40.87;23.07;;;10.90;1.00;;;;;;5115405;28;20727;-70
2022/03/25 08:13:57;;;;;;;39.80;22.30;;;11.00;1.00;;;;;;5115358;28;20781;-71
2022/03/25 08:16:24;;;;;;;41.43;23.43;;;11.10;1.00;;;;;;5114980;28;21005;-70
2022/03/25 08:18:50;;;;;;;38.17;22.67;;;11.10;1.00;;;;;;5115044;28;20453;-69
2022/03/25 08:21:17;;;;;;;39.03;23.70;;;11.20;1.00;;;;;;5114870;28;20779;-71
2022/03/25 08:29:17;;;;;;;39.17;21.87;;;11.60;1.00;;;;;;5114748;28;20757;-71
2022/03/25 08:31:44;;;;;;;36.53;22.43;;;11.70;1.00;;;;;;5115054;28;20448;-72
2022/03/25 08:34:14;;;;;;;34.67;21.60;;;11.70;1.00;;;;;;5114862;28;20460;-71
2022/03/25 08:36:42;;;;;;;37.60;23.27;;;11.80;1.00;;;;;;5114918;28;20452;-72
2022/03/25 08:39:10;;;;;;;38.70;22.50;;;11.90;1.00;;;;;;5115094;28;20809;-72
2022/03/25 08:41:37;;;;;;;39.50;23.10;;;12.00;1.00;;;;;;5114615;28;20488;-71
2022/03/25 08:44:04;;;;;;;39.57;23.20;;;12.10;1.00;;;;;;5114451;28;20471;-71
2022/03/25 08:46:32;;;;;;;38.77;22.87;;;12.20;1.00;;;;;;5114772;28;20508;-72
2022/03/25 08:48:58;;;;;;;38.50;22.13;;;12.30;1.00;;;;;;5115609;28;20452;-72
2022/03/25 08:51:25;;;;;;;39.27;22.97;;;12.40;1.00;;;;;;5114681;28;20484;-72
2022/03/25 08:53:53;;;;;;;45.60;21.87;;;12.40;1.00;;;;;;5114124;28;20931;-71
2022/03/25 08:56:24;;;;;;;37.77;23.03;;;12.50;1.00;;;;;;5114892;28;20452;-71
2022/03/25 08:58:54;;;;;;;38.20;23.47;;;12.50;1.00;;;;;;5114538;28;20501;-72
2022/03/25 09:01:22;;;;;;;35.17;21.93;;;12.60;1.00;;;;;;5114961;28;20811;-72
2022/03/25 09:03:49;;;;;;;35.60;21.70;;;12.60;1.00;;;;;;5118132;28;20449;-72
2022/03/25 09:06:17;;;;;;;37.33;22.80;;;12.60;1.00;;;;;;5119095;28;20559;-71
2022/03/25 09:08:44;;;;;;;40.30;22.73;;;12.70;1.00;;;;;;5120018;28;20452;-73
2022/03/25 09:11:12;;;;;;;40.30;23.90;;;12.80;1.00;;;;;;5121164;28;20920;-72
2022/03/25 09:13:41;;;;;;;36.17;23.20;;;12.90;1.00;;;;;;5118697;28;20831;-73
2022/03/25 09:16:07;;;;;;;35.60;22.80;;;12.90;1.00;;;;;;5118467;28;20938;-72
2022/03/25 09:18:34;;;;;;;42.93;24.40;;;13.10;1.00;;;;;;5118200;28;20926;-71
2022/03/25 09:21:01;;;;;;;47.53;23.87;;;13.20;1.00;;;;;;5118597;28;20476;-72
2022/03/25 09:23:28;;;;;;;44.73;24.17;;;13.30;1.00;;;;;;5118671;28;20452;-72
2022/03/25 09:25:54;;;;;;;45.07;26.17;;;13.30;1.00;;;;;;5118302;28;20542;-72
2022/03/25 09:28:21;;;;;;;32.87;22.77;;;13.30;1.00;;;;;;5118551;28;20968;-72
2022/03/25 09:30:49;;;;;;;37.87;23.90;;;13.40;1.00;;;;;;5117867;28;20967;-72
2022/03/25 09:33:16;;;;;;;35.97;23.30;;;13.50;1.00;;;;;;5117886;28;20612;-71
2022/03/25 09:35:44;;;;;;;36.60;22.20;;;13.50;1.00;;;;;;5118862;28;20460;-73
2022/03/25 09:38:11;;;;;;;36.53;23.63;;;13.60;1.00;;;;;;5117986;28;20452;-70
2022/03/25 09:40:41;;;;;;;37.83;23.13;;;13.80;1.00;;;;;;5118084;28;20526;-69
2022/03/25 09:43:07;;;;;;;42.47;24.33;;;13.90;1.00;;;;;;5117864;28;20456;-69
2022/03/25 09:45:35;;;;;;;43.10;24.47;;;14.00;1.00;;;;;;5117797;28;20455;-70
2022/03/25 09:48:04;;;;;;;41.13;25.10;;;14.00;1.00;;;;;;5118304;28;20727;-69
2022/03/25 09:50:33;;;;;;;43.50;24.27;;;14.10;1.00;;;;;;5117764;28;20941;-70
2022/03/25 09:53:00;;;;;;;38.17;24.43;;;14.10;1.00;;;;;;5117546;28;20862;-72
2022/03/25 09:55:29;;;;;;;38.50;24.73;;;14.20;1.00;;;;;;5118204;28;20465;-72
2022/03/25 09:57:58;;;;;;;43.77;27.43;;;14.20;1.00;;;;;;5117758;28;20517;-71
2022/03/25 10:00:27;;;;;;;38.23;24.93;;;14.30;1.00;;;;;;5118335;28;20471;-69
2022/03/25 10:02:53;;;;;;;56.73;38.37;;;14.30;1.00;;;;;;5117104;28;20925;-70
2022/03/25 10:05:23;;;;;;;42.07;25.97;;;14.40;1.00;;;;;;5117936;28;20456;-72
2022/03/25 10:07:51;;;;;;;37.60;24.70;;;14.50;1.00;;;;;;5117487;28;20832;-71
2022/03/25 10:10:20;;;;;;;40.83;26.23;;;14.60;1.00;;;;;;5117437;28;20517;-72
2022/03/25 10:12:48;;;;;;;45.23;27.10;;;14.60;1.00;;;;;;5117154;28;20507;-72
2022/03/25 10:15:20;;;;;;;43.83;24.80;;;14.70;1.00;;;;;;5116778;28;20813;-71
2022/03/25 10:17:49;;;;;;;44.30;27.23;;;14.70;1.00;;;;;;5117374;28;20483;-70
2022/03/25 10:20:16;;;;;;;60.17;26.40;;;14.70;1.00;;;;;;5117542;28;20452;-73
2022/03/25 10:23:01;;;;;;;47.80;25.50;;;14.80;1.00;;;;;;5117382;28;20476;-73
2022/03/25 10:25:49;;;;;;;42.00;26.87;;;14.90;1.00;;;;;;5117606;28;20437;-72
2022/03/25 10:28:27;;;;;;;41.23;26.00;;;15.00;1.00;;;;;;5116751;28;20448;-71
2022/03/25 10:30:57;;;;;;;39.07;26.53;;;15.10;1.00;;;;;;5117647;28;20802;-72
2022/03/25 10:33:28;;;;;;;42.93;26.40;;;15.10;1.00;;;;;;5116678;28;20529;-72
2022/03/25 10:36:07;;;;;;;42.63;26.70;;;15.10;1.00;;;;;;5117510;28;20444;-72
2022/03/25 10:38:45;;;;;;;36.30;24.63;;;15.20;1.00;;;;;;5116597;28;20917;-72
2022/03/25 10:41:14;;;;;;;49.33;26.97;;;15.30;1.00;;;;;;5116741;28;20457;-72
2022/03/25 10:43:59;;;;;;;38.90;25.77;;;15.30;1.00;;;;;;5116604;28;20766;-73
2022/03/25 10:46:31;;;;;;;38.63;25.10;;;15.50;1.00;;;;;;5116566;28;20441;-72
2022/03/25 10:48:58;;;;;;;39.93;25.30;;;15.60;1.00;;;;;;5116993;28;20460;-72
2022/03/25 10:51:25;;;;;;;43.63;26.97;;;15.50;1.00;;;;;;5116746;28;20547;-72
2022/03/25 10:53:59;;;;;;;39.93;25.50;;;15.50;1.00;;;;;;5116255;28;20499;-72
2022/03/25 10:56:27;;;;;;;38.40;24.87;;;15.60;1.00;;;;;;5116882;28;20436;-72
2022/03/25 10:58:55;;;;;;;40.97;24.20;;;15.60;1.00;;;;;;5116922;28;20448;-72
2022/03/25 11:01:24;;;;;;;40.80;25.17;;;15.70;1.00;;;;;;5117358;28;20488;-73
2022/03/25 11:03:52;;;;;;;38.70;25.60;;;15.70;1.00;;;;;;5117986;28;20558;-73
2022/03/25 11:06:21;;;;;;;35.23;24.10;;;15.90;1.00;;;;;;5116550;28;20456;-73
2022/03/25 11:08:49;;;;;;;51.30;29.40;;;15.90;1.00;;;;;;5117037;28;20452;-73
2022/03/25 11:11:18;;;;;;;37.90;25.90;;;16.00;1.00;;;;;;5116344;28;20452;-72
2022/03/25 11:13:48;;;;;;;40.60;26.73;;;16.10;1.00;;;;;;5115867;28;20456;-72
2022/03/25 11:16:17;;;;;;;39.93;24.13;;;16.20;1.00;;;;;;5116012;28;20471;-71
2022/03/25 11:18:44;;;;;;;29.73;18.40;;;16.30;1.00;;;;;;5116959;28;20456;-70
2022/03/25 11:21:13;;;;;;;27.43;16.90;;;16.50;1.00;;;;;;5115886;28;20576;-70
2022/03/25 11:23:45;;;;;;;22.90;16.07;;;16.60;1.00;;;;;;5115848;28;20898;-71
2022/03/25 11:26:15;;;;;;;28.97;16.20;;;16.80;1.00;;;;;;5114892;28;20447;-69
2022/03/25 11:28:45;;;;;;;29.43;17.53;;;16.90;1.00;;;;;;5115942;28;20461;-69
2022/03/25 11:31:11;;;;;;;29.60;17.40;;;17.10;1.00;;;;;;5115678;28;20463;-70
2022/03/25 11:34:07;;;;;;;30.90;16.03;;;17.30;1.00;;;;;;5115925;28;20787;-70
2022/03/25 11:36:36;;;;;;;41.77;25.00;;;17.50;1.00;;;;;;5113857;28;20463;-69
2022/03/25 11:39:18;;;;;;;23.43;13.93;;;17.90;1.00;;;;;;5115535;28;20459;-69
2022/03/25 11:41:45;;;;;;;20.73;12.03;;;18.20;1.00;;;;;;5115530;28;20757;-70
2022/03/25 11:44:25;;;;;;;18.70;11.23;;;18.40;1.00;;;;;;5115430;28;20455;-70
2022/03/25 11:47:14;;;;;;;29.67;13.50;;;18.70;1.00;;;;;;5115172;28;20440;-70
2022/03/25 11:49:41;;;;;;;22.03;13.73;;;19.00;1.00;;;;;;5115112;28;20891;-70
2022/03/25 11:52:26;;;;;;;26.00;13.30;;;19.30;1.00;;;;;;5114996;28;20976;-70
2022/03/25 11:54:58;;;;;;;19.60;11.83;;;19.60;1.00;;;;;;5115319;28;20452;-70
2022/03/25 11:57:26;;;;;;;19.23;10.67;;;19.80;1.00;;;;;;5115883;28;20505;-70
2022/03/25 11:59:55;;;;;;;16.53;11.40;;;20.00;1.00;;;;;;5116939;28;20448;-70
2022/03/25 12:02:43;;;;;;;20.10;13.20;;;20.50;1.00;;;;;;5115167;28;20575;-70
2022/03/25 12:05:37;;;;;;;22.97;14.97;;;21.00;1.00;;;;;;5114998;28;20436;-71
2022/03/25 12:08:23;;;;;;;28.43;14.93;;;21.50;1.00;;;;;;5115308;28;20452;-70
2022/03/25 12:10:54;;;;;;;21.73;15.07;;;22.10;1.00;;;;;;5115241;28;20459;-70
2022/03/25 12:13:22;;;;;;;23.87;14.10;;;22.50;1.00;;;;;;5115074;28;20448;-70
2022/03/25 12:15:52;;;;;;;17.43;13.63;;;23.10;1.00;;;;;;5114762;28;20938;-70
2022/03/25 12:18:42;;;;;;;23.17;13.53;;;23.50;1.00;;;;;;5115262;28;20536;-70
2022/03/25 12:21:13;;;;;;;20.30;15.13;;;23.90;1.00;;;;;;5114772;28;20599;-71
2022/03/25 12:23:39;;;;;;;22.17;15.33;;;24.20;1.00;;;;;;5114858;28;20456;-69
2022/03/25 12:26:06;;;;;;;21.17;14.93;;;23.40;1.00;;;;;;5114825;28;20980;-69
2022/03/25 12:28:33;;;;;;;22.20;15.10;;;23.40;1.00;;;;;;5114532;28;20609;-70
2022/03/25 12:31:06;;;;;;;24.37;15.90;;;23.80;1.00;;;;;;5115421;28;20755;-70
2022/03/25 12:33:32;;;;;;;25.27;15.90;;;24.10;1.00;;;;;;5114456;28;20455;-71
2022/03/25 12:36:05;;;;;;;24.33;15.40;;;24.10;1.00;;;;;;5113799;28;20871;-69
2022/03/25 12:38:32;;;;;;;21.90;14.63;;;24.30;1.00;;;;;;5114652;28;20448;-70
2022/03/25 12:40:58;;;;;;;25.63;15.40;;;24.20;1.00;;;;;;5114403;28;20492;-70
2022/03/25 12:43:31;;;;;;;19.27;14.80;;;24.00;1.00;;;;;;5114380;28;20476;-69
2022/03/25 12:45:58;;;;;;;48.37;38.47;;;23.90;1.00;;;;;;5114503;28;20498;-70
2022/03/25 12:48:26;;;;;;;26.70;14.80;;;24.20;1.00;;;;;;5114004;28;20456;-70
2022/03/25 12:50:55;;;;;;;22.60;13.20;;;24.70;1.00;;;;;;5114394;28;20516;-70
2022/03/25 12:53:23;;;;;;;19.83;13.87;;;24.50;1.00;;;;;;5114042;28;20480;-70